Time;durP1;ratioP1;P1;durP2;ratioP2;P2;SDS_P1;SDS_P2;PMS_P1;PMS_P2;Temp;Humidity;BMP_temperature;BMP_pressure;BME280_temperature;BME280_humidity;BME280_pressure;Samples;Min_cycle;Max_cycle;Signal;HPM_P1;HPM_P2
2021/08/20 00:01:07;;;;;;;17.37;13.27;;;;;;;15.37;90.14;100226.30;1792498;78;22235;-74
2021/08/20 00:03:34;;;;;;;16.57;12.73;;;;;;;15.39;90.09;100224.64;1793107;79;22204;-72
2021/08/20 00:06:01;;;;;;;16.77;11.33;;;;;;;15.39;90.09;100224.64;1785097;79;21680;-74
2021/08/20 00:08:28;;;;;;;18.23;12.63;;;;;;;15.37;90.14;100227.64;1784299;78;21843;-74
2021/08/20 00:10:56;;;;;;;17.50;12.37;;;;;;;15.37;90.22;100225.50;1777623;79;21723;-74
2021/08/20 00:13:24;;;;;;;16.03;12.47;;;;;;;15.37;90.21;100225.50;1771981;79;21676;-74
2021/08/20 00:15:50;;;;;;;17.73;12.37;;;;;;;15.39;90.22;100232.70;1772916;79;21798;-74
2021/08/20 00:18:17;;;;;;;18.47;12.47;;;;;;;15.37;90.23;100227.64;1774908;78;21613;-71
2021/08/20 00:20:45;;;;;;;17.10;12.40;;;;;;;15.38;90.10;100228.43;1784544;78;21770;-72
2021/08/20 00:23:11;;;;;;;17.30;12.50;;;;;;;15.37;90.20;100227.64;1770728;79;21705;-72
2021/08/20 00:25:38;;;;;;;14.40;12.57;;;;;;;15.36;90.35;100231.95;1775088;79;21719;-72
2021/08/20 00:28:05;;;;;;;16.87;12.87;;;;;;;15.34;90.75;100226.09;1775553;79;21734;-71
2021/08/20 00:30:31;;;;;;;17.90;12.40;;;;;;;15.30;91.16;100229.92;1776686;79;21520;-72
2021/08/20 00:32:58;;;;;;;17.13;12.80;;;;;;;15.34;90.67;100234.95;1774191;79;21727;-72
2021/08/20 00:35:25;;;;;;;17.57;12.40;;;;;;;15.34;90.67;100234.95;1771751;79;22465;-72
2021/08/20 00:37:52;;;;;;;17.80;12.20;;;;;;;15.35;90.69;100228.47;1788947;77;21691;-73
2021/08/20 00:40:18;;;;;;;16.43;11.83;;;;;;;15.38;90.51;100239.20;1748711;80;21753;-73
2021/08/20 00:42:47;;;;;;;15.70;12.23;;;;;;;15.38;90.31;100235.95;1739284;79;21692;-73
2021/08/20 00:45:14;;;;;;;15.57;11.53;;;;;;;15.40;90.02;100244.54;1756150;80;21757;-73
2021/08/20 00:47:42;;;;;;;14.57;12.43;;;;;;;15.39;89.99;100242.12;1779124;79;21768;-74
2021/08/20 00:50:10;;;;;;;15.77;12.27;;;;;;;15.42;89.54;100250.41;1773133;79;21735;-74
2021/08/20 00:52:37;;;;;;;15.53;12.27;;;;;;;15.40;89.49;100251.27;1796138;79;21675;-72
2021/08/20 00:55:08;;;;;;;15.17;11.40;;;;;;;15.37;89.58;100248.38;1767103;80;21743;-72
2021/08/20 00:57:37;;;;;;;16.00;12.65;;;;;;;15.35;89.63;100250.55;1764808;77;21778;-72
2021/08/20 01:00:07;;;;;;;18.77;13.20;;;;;;;15.30;89.68;100246.59;1794238;77;21568;-72
2021/08/20 01:02:33;;;;;;;17.53;12.30;;;;;;;15.27;89.85;100253.38;1802260;77;22909;-72
2021/08/20 01:05:00;;;;;;;18.47;13.47;;;;;;;15.23;89.91;100258.56;1786571;79;21732;-72
2021/08/20 01:07:30;;;;;;;16.93;12.60;;;;;;;15.21;89.98;100264.77;1788943;79;21720;-72
2021/08/20 01:09:57;;;;;;;14.33;12.23;;;;;;;15.20;89.57;100265.05;1800798;77;21610;-71
2021/08/20 01:12:26;;;;;;;20.03;12.90;;;;;;;15.17;90.21;100263.77;1778400;78;21658;-72
2021/08/20 01:14:54;;;;;;;13.83;10.70;;;;;;;15.18;90.46;100268.59;1778996;80;21541;-73
2021/08/20 01:17:23;;;;;;;14.57;12.63;;;;;;;15.18;90.56;100273.42;1792248;77;21744;-72
2021/08/20 01:19:51;;;;;;;16.03;11.93;;;;;;;15.17;90.56;100279.12;1788958;77;21712;-72
2021/08/20 01:22:18;;;;;;;15.87;12.17;;;;;;;15.16;90.41;100278.30;1792565;77;21686;-72
2021/08/20 01:24:47;;;;;;;14.63;12.23;;;;;;;15.17;90.28;100275.08;1789510;79;21543;-72
2021/08/20 01:27:17;;;;;;;17.63;12.70;;;;;;;15.16;89.93;100275.61;1787166;77;21662;-72
2021/08/20 01:29:45;;;;;;;15.57;12.70;;;;;;;15.16;89.93;100275.61;1796529;77;22014;-73
2021/08/20 01:32:13;;;;;;;15.40;12.50;;;;;;;15.19;89.84;100285.78;1804306;77;21682;-73
2021/08/20 01:34:43;;;;;;;15.27;12.87;;;;;;;15.20;89.51;100286.05;1793800;77;21717;-73
2021/08/20 01:37:12;;;;;;;14.77;11.90;;;;;;;15.18;89.25;100281.50;1791132;79;21757;-73
2021/08/20 01:39:39;;;;;;;14.97;11.77;;;;;;;15.23;88.88;100286.81;1798695;77;21784;-72
2021/08/20 01:42:08;;;;;;;15.57;12.47;;;;;;;15.22;88.60;100290.58;1792560;77;21756;-73
2021/08/20 01:44:35;;;;;;;15.37;12.33;;;;;;;15.23;88.29;100290.84;1793689;78;21723;-74
2021/08/20 01:47:04;;;;;;;16.47;12.60;;;;;;;15.25;87.94;100295.92;1786172;77;22148;-74
2021/08/20 01:49:32;;;;;;;14.93;12.13;;;;;;;15.27;87.55;100294.27;1802289;79;21802;-73
2021/08/20 01:52:01;;;;;;;15.57;11.50;;;;;;;15.29;87.25;100300.16;1790603;77;21661;-73
2021/08/20 01:54:30;;;;;;;16.07;11.73;;;;;;;15.30;86.92;100293.67;1792471;79;22235;-72
2021/08/20 01:56:58;;;;;;;16.57;12.73;;;;;;;15.31;86.68;100300.68;1795817;77;21777;-72
2021/08/20 01:59:24;;;;;;;16.20;11.93;;;;;;;15.30;86.33;100297.72;1786598;77;21622;-73
2021/08/20 02:01:53;;;;;;;15.60;11.53;;;;;;;15.27;85.99;100294.27;1792087;77;21674;-72
2021/08/20 02:04:22;;;;;;;15.13;11.80;;;;;;;15.31;85.67;100300.68;1784839;77;21720;-72
2021/08/20 02:06:51;;;;;;;15.63;12.03;;;;;;;15.32;85.24;100299.58;1797891;77;22151;-72
2021/08/20 02:09:18;;;;;;;14.37;12.20;;;;;;;15.30;84.94;100298.54;1799057;77;22353;-72
2021/08/20 02:11:46;;;;;;;14.10;11.57;;;;;;;15.31;84.71;100301.47;1789957;77;21700;-72
2021/08/20 02:14:15;;;;;;;15.23;11.80;;;;;;;15.31;84.46;100301.47;1774866;79;21793;-74
2021/08/20 02:16:41;;;;;;;16.33;11.77;;;;;;;15.30;84.35;100300.41;1813363;79;21765;-73
2021/08/20 02:19:10;;;;;;;15.60;12.60;;;;;;;15.29;83.87;100298.81;1789419;77;21729;-71
2021/08/20 02:21:37;;;;;;;14.83;11.73;;;;;;;15.27;83.63;100301.81;1793986;77;21720;-72
2021/08/20 02:24:07;;;;;;;14.33;11.53;;;;;;;15.24;83.25;100297.81;1789480;77;21736;-72
2021/08/20 02:26:36;;;;;;;15.33;11.83;;;;;;;15.26;83.35;100305.58;1798316;79;22183;-72
2021/08/20 02:29:04;;;;;;;15.73;12.00;;;;;;;15.23;83.26;100298.92;1800972;77;21675;-72
2021/08/20 02:31:31;;;;;;;15.50;11.73;;;;;;;15.24;83.21;100305.89;1797131;77;21706;-73
2021/08/20 02:33:59;;;;;;;16.53;11.87;;;;;;;15.22;83.21;100300.54;1798728;77;38705;-72
2021/08/20 02:36:26;;;;;;;14.57;12.20;;;;;;;15.18;83.46;100300.33;1801710;77;22188;-72
2021/08/20 02:38:54;;;;;;;14.70;12.33;;;;;;;15.19;83.67;100302.47;1805418;77;21743;-73
2021/08/20 02:41:24;;;;;;;14.80;12.10;;;;;;;15.16;83.76;100302.51;1797967;77;21805;-70
2021/08/20 02:43:52;;;;;;;15.33;11.77;;;;;;;15.15;83.75;100303.61;1796826;77;21816;-72
2021/08/20 02:46:19;;;;;;;15.10;12.30;;;;;;;15.14;83.58;100304.70;1801832;77;21834;-72
2021/08/20 02:48:46;;;;;;;16.93;13.20;;;;;;;15.12;83.89;100304.19;1804618;77;21729;-72
2021/08/20 02:51:13;;;;;;;13.80;12.23;;;;;;;15.09;84.03;100304.78;1797271;77;21647;-73
2021/08/20 02:53:41;;;;;;;14.63;12.33;;;;;;;15.08;84.09;100312.60;1791967;77;21640;-73
2021/08/20 02:56:08;;;;;;;16.73;12.47;;;;;;;15.07;84.20;100314.22;1803939;79;22181;-72
2021/08/20 02:58:44;;;;;;;14.33;11.93;;;;;;;15.06;84.44;100314.77;1789260;77;21737;-73
2021/08/20 03:01:10;;;;;;;15.70;13.23;;;;;;;15.04;84.69;100314.28;1787442;79;22232;-74
2021/08/20 03:03:39;;;;;;;15.30;12.30;;;;;;;15.03;84.95;100311.32;1796299;77;21671;-73
2021/08/20 03:06:07;;;;;;;16.87;12.90;;;;;;;15.00;85.55;100313.25;1793791;77;22164;-73
2021/08/20 03:08:36;;;;;;;16.30;13.10;;;;;;;15.00;85.55;100313.25;1804186;77;22114;-72
2021/08/20 03:11:04;;;;;;;13.00;11.07;;;;;;;15.00;85.96;100316.77;1776898;79;21705;-71
2021/08/20 03:13:32;;;;;;;12.53;11.23;;;;;;;15.00;86.15;100319.97;1795110;77;22251;-73
2021/08/20 03:15:59;;;;;;;14.43;10.93;;;;;;;15.01;86.21;100321.59;1787326;79;21748;-73
2021/08/20 03:18:27;;;;;;;12.67;11.30;;;;;;;15.06;86.35;100322.84;1797253;77;22163;-72
2021/08/20 03:20:54;;;;;;;12.80;10.67;;;;;;;15.06;86.35;100322.84;1784453;79;21747;-72
2021/08/20 03:23:24;;;;;;;14.07;10.57;;;;;;;15.10;85.78;100331.92;1793479;77;21679;-72
2021/08/20 03:25:52;;;;;;;13.33;10.10;;;;;;;15.14;85.36;100327.58;1791698;77;21716;-73
2021/08/20 03:28:21;;;;;;;13.80;9.90;;;;;;;15.18;84.92;100327.78;1784767;79;21689;-73
2021/08/20 03:30:52;;;;;;;13.72;9.58;;;;;;;15.23;84.59;100329.86;1795767;77;21663;-73
2021/08/20 03:33:19;;;;;;;11.87;9.43;;;;;;;15.28;84.32;100327.63;1799076;77;21552;-72
2021/08/20 03:35:48;;;;;;;11.37;9.30;;;;;;;15.33;83.83;100324.04;1800115;77;21767;-71
2021/08/20 03:38:18;;;;;;;11.43;9.03;;;;;;;15.37;83.32;100326.42;1806526;77;22016;-73
2021/08/20 03:40:45;;;;;;;11.80;8.83;;;;;;;15.42;82.87;100327.66;1788324;77;22226;-73
2021/08/20 03:43:12;;;;;;;11.13;9.33;;;;;;;15.47;82.68;100327.59;1793265;77;21810;-74
2021/08/20 03:45:41;;;;;;;14.77;10.40;;;;;;;15.52;82.50;100325.34;1794705;77;21704;-73
2021/08/20 03:48:11;;;;;;;10.33;8.30;;;;;;;15.59;82.48;100323.86;1789131;77;22221;-73
2021/08/20 03:50:38;;;;;;;11.70;8.73;;;;;;;15.62;82.10;100319.23;1804088;77;21653;-73
2021/08/20 03:53:05;;;;;;;13.13;8.57;;;;;;;15.67;81.57;100322.43;1804031;77;21656;-73
2021/08/20 03:55:32;;;;;;;10.40;8.50;;;;;;;15.71;81.28;100323.42;1767059;79;21758;-73
2021/08/20 03:58:06;;;;;;;11.30;8.50;;;;;;;15.81;80.79;100329.18;1812178;77;22076;-73
2021/08/20 04:00:35;;;;;;;11.00;8.30;;;;;;;15.85;80.25;100331.52;1800500;77;21090;-73
2021/08/20 04:03:02;;;;;;;12.83;7.57;;;;;;;15.94;79.83;100339.97;1797677;77;20932;-74
2021/08/20 04:05:29;;;;;;;11.77;7.90;;;;;;;15.94;79.83;100339.97;1796846;77;21517;-72
2021/08/20 04:07:58;;;;;;;8.43;6.90;;;;;;;16.01;79.48;100339.56;1788759;77;21011;-73
2021/08/20 04:10:43;;;;;;;10.10;7.33;;;;;;;16.09;78.88;100340.23;1797065;77;22345;-73
2021/08/20 04:13:15;;;;;;;8.47;7.00;;;;;;;16.19;78.28;100336.55;1797187;77;21055;-74
2021/08/20 04:15:45;;;;;;;9.90;7.50;;;;;;;16.25;77.79;100330.48;1803588;79;21483;-73
2021/08/20 04:18:13;;;;;;;10.00;7.43;;;;;;;16.37;77.18;100333.48;1799147;77;21625;-72
2021/08/20 04:20:42;;;;;;;9.67;7.20;;;;;;;16.52;76.29;100333.70;1793765;78;21478;-73
2021/08/20 04:23:11;;;;;;;9.80;7.07;;;;;;;16.52;76.29;100333.70;1802402;77;21070;-74
2021/08/20 04:25:39;;;;;;;8.20;6.53;;;;;;;16.65;76.13;100345.05;1798067;77;21522;-73
2021/08/20 04:28:26;;;;;;;8.80;6.77;;;;;;;16.75;75.61;100340.80;1767805;79;21090;-73
2021/08/20 04:30:55;;;;;;;8.50;6.60;;;;;;;16.84;74.89;100332.77;1756785;80;21534;-73
2021/08/20 04:33:23;;;;;;;9.00;6.73;;;;;;;16.95;74.55;100331.45;1781240;79;21106;-73
2021/08/20 04:36:10;;;;;;;9.23;6.10;;;;;;;17.04;74.08;100335.00;1770313;78;21533;-73
2021/08/20 04:38:41;;;;;;;9.65;7.28;;;;;;;17.15;73.79;100326.14;1762584;80;21096;-74
2021/08/20 04:41:15;;;;;;;10.30;7.20;;;;;;;17.27;73.57;100333.67;1778387;79;21028;-72
2021/08/20 04:43:44;;;;;;;8.97;6.50;;;;;;;17.37;73.04;100333.41;1783669;79;21102;-73
2021/08/20 04:46:25;;;;;;;8.15;6.20;;;;;;;17.46;72.65;100326.17;1759119;78;21096;-73
2021/08/20 04:49:08;;;;;;;8.47;6.27;;;;;;;17.55;72.49;100331.08;1793224;78;21015;-73
2021/08/20 04:51:47;;;;;;;9.47;6.60;;;;;;;17.65;72.28;100331.93;1794702;78;20900;-73
2021/08/20 04:54:18;;;;;;;8.08;6.67;;;;;;;17.72;71.92;100327.67;1787365;78;21594;-74
2021/08/20 04:56:57;;;;;;;10.73;6.47;;;;;;;17.79;71.57;100334.01;1780046;78;21558;-73
2021/08/20 04:59:24;;;;;;;8.47;6.60;;;;;;;17.89;71.59;100336.44;1793755;78;21570;-74
2021/08/20 05:01:50;;;;;;;10.00;5.97;;;;;;;17.99;71.32;100336.72;1797187;78;21034;-74
2021/08/20 05:04:17;;;;;;;7.80;6.00;;;;;;;18.07;71.09;100331.13;1770844;78;21093;-73
2021/08/20 05:06:44;;;;;;;8.60;6.50;;;;;;;18.14;70.91;100334.17;1776598;78;21070;-72
2021/08/20 05:09:13;;;;;;;9.33;6.57;;;;;;;18.18;70.99;100333.78;1787347;78;21145;-73
2021/08/20 05:11:41;;;;;;;9.13;6.37;;;;;;;18.26;71.15;100334.34;1791855;78;20983;-73
2021/08/20 05:14:08;;;;;;;11.30;6.23;;;;;;;18.34;70.98;100333.59;1782830;78;21107;-74
2021/08/20 05:16:37;;;;;;;11.20;6.00;;;;;;;18.42;70.80;100325.25;1775698;78;21081;-74
2021/08/20 05:19:04;;;;;;;8.93;6.53;;;;;;;18.49;70.81;100320.16;1785448;79;21047;-74
2021/08/20 05:21:33;;;;;;;12.33;7.23;;;;;;;18.59;70.47;100323.12;1769855;79;21559;-73
2021/08/20 05:24:01;;;;;;;10.07;7.10;;;;;;;18.65;70.40;100318.59;1790349;78;21058;-72
2021/08/20 05:26:28;;;;;;;9.03;6.13;;;;;;;18.70;70.40;100319.02;1778331;79;21068;-73
2021/08/20 05:28:55;;;;;;;9.63;6.47;;;;;;;18.78;70.60;100323.66;1771259;80;21059;-74
2021/08/20 05:31:22;;;;;;;9.53;6.60;;;;;;;18.87;70.60;100320.41;1796941;77;21531;-73
2021/08/20 05:33:49;;;;;;;10.03;6.40;;;;;;;18.98;70.50;100324.38;1736943;80;21147;-73
2021/08/20 05:36:16;;;;;;;9.23;6.07;;;;;;;19.09;69.85;100332.20;1741762;80;21055;-75
2021/08/20 05:38:44;;;;;;;9.93;5.93;;;;;;;19.15;68.73;100327.66;1735184;81;21071;-73
2021/08/20 05:41:10;;;;;;;8.53;6.03;;;;;;;19.26;68.06;100327.32;1733812;80;20907;-74
2021/08/20 05:43:37;;;;;;;7.80;5.70;;;;;;;19.33;67.59;100323.00;1723789;81;21050;-74
2021/08/20 05:46:04;;;;;;;9.13;5.37;;;;;;;19.38;66.35;100314.72;1722177;81;21096;-74
2021/08/20 05:48:31;;;;;;;8.27;5.50;;;;;;;19.44;66.33;100315.33;1723099;80;21015;-75
2021/08/20 05:50:58;;;;;;;8.97;5.17;;;;;;;19.50;65.99;100313.25;1776115;80;21011;-76
2021/08/20 05:53:26;;;;;;;7.47;4.97;;;;;;;19.58;65.37;100315.16;1771132;79;21599;-73
2021/08/20 05:55:52;;;;;;;7.87;4.80;;;;;;;19.65;65.12;100318.19;1777829;80;21054;-74
2021/08/20 05:58:19;;;;;;;7.00;4.77;;;;;;;19.73;64.50;100318.70;1772554;79;21508;-75
2021/08/20 06:00:48;;;;;;;8.27;5.03;;;;;;;19.80;64.46;100316.28;1768463;79;21004;-74
2021/08/20 06:03:22;;;;;;;7.17;4.60;;;;;;;19.90;64.27;100319.98;1759727;79;21625;-75
2021/08/20 06:05:49;;;;;;;5.80;4.87;;;;;;;20.00;64.26;100319.39;1769971;79;21007;-74
2021/08/20 06:08:16;;;;;;;8.80;5.00;;;;;;;20.10;63.75;100311.71;1735388;80;21096;-75
2021/08/20 06:10:44;;;;;;;9.83;5.70;;;;;;;20.20;63.33;100310.52;1776916;79;21113;-73
2021/08/20 06:13:13;;;;;;;8.50;5.10;;;;;;;20.29;62.74;100309.91;1763953;79;21101;-72
2021/08/20 06:15:41;;;;;;;7.63;5.37;;;;;;;20.37;62.15;100317.78;1773384;79;21061;-73
2021/08/20 06:18:08;;;;;;;10.43;5.17;;;;;;;20.47;62.26;100320.68;1768373;79;21023;-74
2021/08/20 06:20:37;;;;;;;6.83;4.90;;;;;;;20.58;61.63;100313.76;1775672;79;21039;-75
2021/08/20 06:23:03;;;;;;;6.70;4.23;;;;;;;20.68;61.41;100314.72;1772226;79;21114;-74
2021/08/20 06:25:33;;;;;;;8.50;4.83;;;;;;;20.77;61.75;100311.38;1776170;79;21106;-73
2021/08/20 06:27:59;;;;;;;5.80;4.57;;;;;;;20.91;61.33;100310.32;1762159;79;21116;-73
2021/08/20 06:30:27;;;;;;;6.90;4.47;;;;;;;21.02;60.33;100316.92;1770265;79;21036;-73
2021/08/20 06:32:53;;;;;;;7.03;4.83;;;;;;;21.11;60.43;100305.42;1763091;79;21335;-74
2021/08/20 06:35:20;;;;;;;6.63;4.67;;;;;;;21.21;60.09;100313.15;1769961;79;21518;-75
2021/08/20 06:37:47;;;;;;;9.53;4.70;;;;;;;21.32;60.12;100309.44;1684700;83;21154;-75
2021/08/20 06:40:18;;;;;;;9.50;6.50;;;;;;;21.45;59.99;100308.95;1770390;79;21064;-73
2021/08/20 06:42:46;;;;;;;5.87;4.20;;;;;;;21.61;59.02;100311.25;1765415;79;21076;-74
2021/08/20 06:45:12;;;;;;;6.40;3.90;;;;;;;21.69;57.76;100312.30;1774007;79;21354;-73
2021/08/20 06:47:41;;;;;;;6.43;3.80;;;;;;;21.72;57.33;100307.55;1765294;79;21157;-73
2021/08/20 06:50:09;;;;;;;5.80;3.70;;;;;;;21.76;56.56;100314.67;1773907;79;22191;-73
2021/08/20 06:52:37;;;;;;;5.90;3.50;;;;;;;21.78;56.41;100312.42;1769233;79;21028;-72
2021/08/20 06:55:05;;;;;;;6.00;3.87;;;;;;;21.82;55.60;100324.77;1770462;79;21040;-73
2021/08/20 06:57:32;;;;;;;5.73;3.57;;;;;;;21.84;55.10;100304.82;1771228;79;21066;-74
2021/08/20 06:59:58;;;;;;;6.20;3.57;;;;;;;21.86;55.07;100303.92;1773263;79;21097;-74
2021/08/20 07:02:25;;;;;;;5.10;3.47;;;;;;;21.88;55.15;100301.67;1766212;79;21062;-73
2021/08/20 07:04:53;;;;;;;6.00;3.70;;;;;;;21.93;55.57;100305.52;1767963;79;22235;-75
2021/08/20 07:07:20;;;;;;;5.20;3.63;;;;;;;21.99;55.05;100304.73;1761980;80;21042;-75
2021/08/20 07:09:54;;;;;;;4.70;3.23;;;;;;;22.06;54.95;100305.52;1766452;79;21101;-75
2021/08/20 07:12:17;;;;;;;7.20;3.83;;;;;;;22.15;54.80;100297.50;1759468;79;25935;-76
2021/08/20 07:14:46;;;;;;;4.37;3.30;;;;;;;22.24;53.87;100304.98;1764403;80;21026;-75
2021/08/20 07:17:12;;;;;;;6.13;3.60;;;;;;;22.30;54.18;100305.52;1765150;79;21094;-75
2021/08/20 07:19:39;;;;;;;5.07;3.50;;;;;;;22.40;54.68;100309.70;1763249;80;21225;-75
2021/08/20 07:22:06;;;;;;;5.40;3.60;;;;;;;22.53;53.05;100309.91;1766446;79;21133;-77
2021/08/20 07:24:33;;;;;;;3.83;2.77;;;;;;;22.58;52.32;100309.69;1767062;80;21144;-75
2021/08/20 07:26:59;;;;;;;6.77;3.53;;;;;;;22.61;51.48;100313.08;1763845;79;21059;-74
2021/08/20 07:29:26;;;;;;;4.97;2.90;;;;;;;22.63;51.50;100312.15;1765919;79;21011;-74
2021/08/20 07:31:54;;;;;;;4.90;2.80;;;;;;;22.67;51.11;100310.34;1776493;79;20996;-74
2021/08/20 07:34:20;;;;;;;5.63;3.00;;;;;;;22.72;50.49;100303.86;1767035;79;21137;-73
2021/08/20 07:36:47;;;;;;;5.47;3.10;;;;;;;22.76;50.75;100303.95;1774143;80;21137;-75
2021/08/20 07:39:14;;;;;;;6.57;3.17;;;;;;;22.82;51.30;100299.86;1762956;79;21019;-74
2021/08/20 07:41:40;;;;;;;4.53;2.40;;;;;;;22.93;51.62;100309.95;1741024;81;21094;-75
2021/08/20 07:44:13;;;;;;;4.93;2.83;;;;;;;23.03;50.86;100301.83;1686896;84;21003;-74
2021/08/20 07:46:35;;;;;;;4.73;2.60;;;;;;;23.11;49.56;100300.12;1697666;83;21530;-73
2021/08/20 07:49:02;;;;;;;5.90;3.57;;;;;;;23.16;49.63;100297.94;1722505;81;21135;-73
2021/08/20 07:51:28;;;;;;;4.57;2.83;;;;;;;23.26;48.88;100305.37;1772617;79;21022;-74
2021/08/20 07:53:56;;;;;;;5.03;2.83;;;;;;;23.28;48.53;100301.73;1766432;80;20960;-75
2021/08/20 07:56:23;;;;;;;5.00;3.00;;;;;;;23.28;49.03;100300.38;1776920;79;21019;-74
2021/08/20 07:58:50;;;;;;;4.67;2.73;;;;;;;23.32;47.99;100303.41;1772206;79;21569;-75
2021/08/20 08:01:18;;;;;;;3.73;2.57;;;;;;;23.36;48.09;100306.22;1773739;79;21101;-73
2021/08/20 08:03:44;;;;;;;4.80;2.80;;;;;;;23.44;47.32;100305.85;1766935;79;20995;-75
2021/08/20 08:06:13;;;;;;;4.30;2.60;;;;;;;23.51;47.28;100295.13;1775413;80;20984;-76
2021/08/20 08:08:40;;;;;;;5.33;2.80;;;;;;;23.57;47.59;100296.45;1779777;80;21078;-75
2021/08/20 08:11:09;;;;;;;5.33;2.90;;;;;;;23.64;47.70;100290.60;1769364;79;21063;-74
2021/08/20 08:13:37;;;;;;;5.00;2.80;;;;;;;23.74;47.18;100283.08;1779613;80;20936;-76
2021/08/20 08:16:05;;;;;;;6.10;3.17;;;;;;;23.84;46.97;100281.17;1778919;79;21035;-75
2021/08/20 08:18:32;;;;;;;5.30;2.80;;;;;;;23.91;47.15;100274.52;1766491;79;21065;-75
2021/08/20 08:20:59;;;;;;;5.83;2.83;;;;;;;23.98;47.76;100281.50;1768925;79;21747;-74
2021/08/20 08:23:25;;;;;;;7.20;3.40;;;;;;;24.11;47.44;100277.52;1769698;79;21046;-76
2021/08/20 08:25:52;;;;;;;6.23;3.33;;;;;;;24.28;48.62;100279.64;1768537;79;21478;-73
2021/08/20 08:28:21;;;;;;;5.87;3.10;;;;;;;24.40;49.35;100279.53;1760620;79;21054;-74
2021/08/20 08:30:49;;;;;;;7.97;3.60;;;;;;;24.49;49.62;100281.52;1766909;79;21074;-75
2021/08/20 08:33:17;;;;;;;5.67;3.13;;;;;;;24.52;49.45;100286.84;1767588;79;21082;-75
2021/08/20 08:35:44;;;;;;;5.07;3.13;;;;;;;24.52;49.35;100289.57;1686967;82;21077;-74
2021/08/20 08:38:14;;;;;;;4.30;2.67;;;;;;;24.52;48.58;100283.53;1775510;79;21541;-75
2021/08/20 08:40:43;;;;;;;5.33;3.10;;;;;;;24.53;46.73;100287.83;1765888;79;21050;-74
2021/08/20 08:43:10;;;;;;;4.70;2.63;;;;;;;24.54;46.96;100289.41;1759876;79;21136;-75
2021/08/20 08:45:37;;;;;;;4.47;3.13;;;;;;;24.59;47.55;100295.17;1764342;80;20987;-74
2021/08/20 08:48:06;;;;;;;5.10;3.07;;;;;;;24.62;47.18;100290.37;1767010;79;21099;-74
2021/08/20 08:50:33;;;;;;;7.17;2.80;;;;;;;24.66;47.18;100282.25;1760409;79;21775;-75
2021/08/20 08:53:01;;;;;;;6.83;3.30;;;;;;;24.70;47.82;100279.80;1761321;80;21396;-75
2021/08/20 08:55:28;;;;;;;5.63;2.77;;;;;;;24.73;47.84;100278.29;1769437;79;21096;-75
2021/08/20 08:57:54;;;;;;;8.67;3.07;;;;;;;24.68;48.09;100274.47;1773135;79;21050;-75
2021/08/20 09:00:37;;;;;;;6.70;3.10;;;;;;;24.59;48.21;100280.73;1765509;79;21219;-73
2021/08/20 09:03:05;;;;;;;5.43;2.90;;;;;;;24.50;48.04;100277.63;1771249;79;21157;-75
2021/08/20 09:05:43;;;;;;;7.37;3.30;;;;;;;24.49;47.06;100284.24;1765576;79;21427;-74
2021/08/20 09:08:12;;;;;;;5.97;3.17;;;;;;;24.52;46.96;100282.16;1770226;79;21050;-72
2021/08/20 09:11:00;;;;;;;6.07;2.97;;;;;;;24.59;46.84;100285.62;1685391;82;21110;-75
2021/08/20 09:13:30;;;;;;;6.73;3.30;;;;;;;24.61;46.53;100290.71;1759396;79;20933;-72
2021/08/20 09:16:10;;;;;;;6.37;2.90;;;;;;;24.54;45.79;100305.00;1772728;79;21051;-73
2021/08/20 09:18:37;;;;;;;6.23;3.30;;;;;;;24.46;46.34;100291.00;1779352;79;20952;-73
2021/08/20 09:21:04;;;;;;;5.27;3.10;;;;;;;24.44;45.62;100267.34;1766256;79;21026;-73
2021/08/20 09:23:30;;;;;;;7.13;3.13;;;;;;;24.44;45.89;100283.72;1771515;79;21045;-72
2021/08/20 09:25:57;;;;;;;6.10;3.07;;;;;;;24.50;46.19;100277.63;1762519;80;20995;-74
2021/08/20 09:28:33;;;;;;;5.97;3.20;;;;;;;24.57;45.39;100280.50;1769375;80;21123;-71
2021/08/20 09:31:09;;;;;;;5.23;2.83;;;;;;;24.62;45.17;100283.54;1772598;79;21050;-72
2021/08/20 09:33:48;;;;;;;6.50;2.70;;;;;;;24.64;43.85;100280.44;1697262;83;21010;-73
2021/08/20 09:36:21;;;;;;;6.30;2.60;;;;;;;24.64;44.34;100279.07;1770518;79;21073;-73
2021/08/20 09:38:55;;;;;;;6.37;3.03;;;;;;;24.70;43.16;100287.98;1766855;79;21068;-73
2021/08/20 09:41:33;;;;;;;4.33;2.60;;;;;;;24.71;42.88;100283.31;1763885;79;21097;-72
2021/08/20 09:44:07;;;;;;;4.83;2.77;;;;;;;24.74;43.22;100290.20;1695046;82;21042;-74
2021/08/20 09:46:44;;;;;;;4.62;2.30;;;;;;;24.83;43.35;100279.66;1769052;80;21041;-74
2021/08/20 09:49:12;;;;;;;4.53;2.75;;;;;;;24.90;42.56;100296.19;1770507;79;21540;-76
2021/08/20 09:51:46;;;;;;;6.10;2.57;;;;;;;24.88;41.66;100279.38;1767537;79;21502;-73
2021/08/20 09:54:25;;;;;;;4.90;2.53;;;;;;;24.91;41.89;100282.73;1768541;79;21106;-74
2021/08/20 09:56:52;;;;;;;5.23;2.67;;;;;;;24.98;42.19;100282.31;1771155;79;20980;-72
2021/08/20 09:59:19;;;;;;;4.13;2.30;;;;;;;25.01;42.49;100276.12;1765363;79;21063;-75
2021/08/20 10:01:47;;;;;;;5.07;2.20;;;;;;;25.02;40.76;100279.64;1769496;79;21011;-76
2021/08/20 10:04:17;;;;;;;5.67;2.40;;;;;;;25.03;40.62;100273.02;1765820;79;21082;-74
2021/08/20 10:06:45;;;;;;;4.23;2.60;;;;;;;25.03;40.58;100275.17;1764312;80;21177;-74
2021/08/20 10:09:18;;;;;;;3.60;2.33;;;;;;;25.00;40.95;100296.39;1780726;79;21026;-74
2021/08/20 10:11:50;;;;;;;5.10;2.57;;;;;;;24.97;40.90;100270.36;1767812;79;21007;-74
2021/08/20 10:14:24;;;;;;;5.73;2.30;;;;;;;24.92;41.24;100291.95;1686971;82;21050;-73
2021/08/20 10:16:52;;;;;;;5.17;2.30;;;;;;;24.87;41.24;100284.61;1756278;80;21022;-73
2021/08/20 10:19:18;;;;;;;4.30;2.00;;;;;;;24.83;40.62;100272.25;1765630;79;21501;-74
2021/08/20 10:21:46;;;;;;;3.50;2.20;;;;;;;24.86;40.44;100291.23;1764737;79;21003;-74
2021/08/20 10:24:14;;;;;;;4.50;1.90;;;;;;;24.86;40.77;100282.45;1769322;79;21058;-74
2021/08/20 10:26:54;;;;;;;6.97;2.30;;;;;;;24.85;40.93;100264.49;1765636;79;21066;-75
2021/08/20 10:29:25;;;;;;;4.43;2.13;;;;;;;24.85;41.08;100263.13;1769876;79;21078;-74
2021/08/20 10:31:55;;;;;;;3.47;1.70;;;;;;;24.85;40.40;100276.78;1761041;79;21135;-76
2021/08/20 10:34:34;;;;;;;3.63;1.87;;;;;;;24.85;40.94;100256.30;1744362;79;21029;-75
2021/08/20 10:37:20;;;;;;;3.67;2.10;;;;;;;24.90;40.74;100257.94;1691017;83;21034;-73
2021/08/20 10:39:49;;;;;;;3.63;1.90;;;;;;;24.94;40.41;100262.34;1766368;79;21305;-72
2021/08/20 10:42:21;;;;;;;3.70;1.93;;;;;;;24.95;39.29;100258.44;1764619;79;21090;-74
2021/08/20 10:44:51;;;;;;;2.63;1.73;;;;;;;24.93;39.89;100259.95;1768206;79;21162;-73
2021/08/20 10:47:26;;;;;;;4.57;2.20;;;;;;;24.94;40.16;100255.50;1761292;80;21112;-71
2021/08/20 10:50:16;;;;;;;2.87;1.77;;;;;;;25.01;39.69;100267.14;1771480;79;21094;-74
2021/08/20 10:52:48;;;;;;;5.17;2.00;;;;;;;25.04;39.31;100275.41;1765754;79;21143;-74
2021/08/20 10:55:30;;;;;;;5.17;1.83;;;;;;;25.08;39.42;100264.55;1764074;80;21055;-72
2021/08/20 10:58:03;;;;;;;5.20;2.00;;;;;;;25.13;38.82;100262.11;1772221;79;21533;-73
2021/08/20 11:00:33;;;;;;;4.50;1.90;;;;;;;25.16;38.73;100264.11;1768898;79;21085;-73
2021/08/20 11:03:03;;;;;;;3.63;1.83;;;;;;;25.22;38.15;100272.23;1768086;79;21073;-72
2021/08/20 11:05:44;;;;;;;2.65;1.72;;;;;;;25.25;38.59;100270.14;1688152;82;21082;-73
2021/08/20 11:08:31;;;;;;;3.30;1.90;;;;;;;25.26;38.89;100275.23;1775022;79;21125;-73
2021/08/20 11:11:00;;;;;;;4.67;1.90;;;;;;;25.24;38.76;100268.58;1769219;79;21106;-74
2021/08/20 11:13:27;;;;;;;4.17;2.10;;;;;;;25.23;39.22;100265.02;1765920;79;21011;-73
2021/08/20 11:15:55;;;;;;;6.53;2.10;;;;;;;25.31;39.12;100268.70;1769860;79;21053;-73
2021/08/20 11:18:45;;;;;;;9.43;2.07;;;;;;;25.38;37.98;100272.13;1774015;80;21043;-72
2021/08/20 11:21:45;;;;;;;3.37;1.80;;;;;;;25.38;37.85;100267.45;1768710;79;21082;-75
2021/08/20 11:24:18;;;;;;;3.92;1.90;;;;;;;25.38;37.56;100249.67;1725324;80;22134;-80
2021/08/20 11:26:45;;;;;;;3.10;1.90;;;;;;;25.40;36.81;100274.72;1771525;79;20973;-73
2021/08/20 11:29:14;;;;;;;2.60;1.63;;;;;;;25.39;36.11;100273.12;1747328;80;21073;-73